Time;durP1;ratioP1;P1;durP2;ratioP2;P2;SDS_P1;SDS_P2;PMS_P1;PMS_P2;Temp;Humidity;BMP_temperature;BMP_pressure;BME280_temperature;BME280_humidity;BME280_pressure;Samples;Min_cycle;Max_cycle;Signal;HPM_P1;HPM_P2
2022/10/26 00:01:10;;;;;;;25.60;17.55;;;;;;;14.95;100.00;23386.49;1792729;80;21078;-65
2022/10/26 00:03:38;;;;;;;23.52;15.93;;;;;;;14.94;100.00;20853.74;1792618;78;21402;-64
2022/10/26 00:06:09;;;;;;;26.95;17.77;;;;;;;14.93;100.00;18997.38;1792404;79;21071;-64
2022/10/26 00:08:36;;;;;;;27.80;18.02;;;;;;;14.90;100.00;16973.23;1792552;80;21020;-64
2022/10/26 00:11:03;;;;;;;27.95;17.40;;;;;;;14.88;100.00;15119.25;1792503;79;21011;-65
2022/10/26 00:13:30;;;;;;;29.98;17.30;;;;;;;14.87;100.00;13434.76;1792225;80;21027;-65
2022/10/26 00:15:58;;;;;;;26.25;17.42;;;;;;;14.85;100.00;11919.34;1791941;79;21036;-64
2022/10/26 00:18:26;;;;;;;33.60;18.55;;;;;;;14.84;100.00;11246.05;1791981;80;21476;-64
2022/10/26 00:20:52;;;;;;;26.70;17.85;;;;;;;14.82;100.00;10572.79;1792374;80;21047;-64
2022/10/26 00:23:19;;;;;;;24.30;15.93;;;;;;;14.80;100.00;10067.75;1792460;79;20908;-64
2022/10/26 00:25:55;;;;;;;28.15;16.95;;;;;;;14.79;100.00;9731.20;1792654;79;20984;-64
2022/10/26 00:28:22;;;;;;;27.40;17.80;;;;;;;14.78;100.00;9226.57;1792561;80;21244;-64
2022/10/26 00:30:49;;;;;;;27.65;17.75;;;;;;;14.74;100.00;8889.46;1792315;79;21571;-64
2022/10/26 00:33:15;;;;;;;29.80;17.27;;;;;;;14.72;100.00;9057.12;1792427;79;20988;-64
2022/10/26 00:35:53;;;;;;;28.35;17.87;;;;;;;14.69;100.00;9056.45;1793163;79;21011;-64
2022/10/26 00:38:20;;;;;;;29.37;16.65;;;;;;;14.67;100.00;9056.01;1795358;79;21023;-63
2022/10/26 00:40:47;;;;;;;26.48;17.35;;;;;;;14.65;100.00;9055.57;1795208;79;21867;-63
2022/10/26 00:43:22;;;;;;;26.73;18.23;;;;;;;14.63;100.00;8887.05;1795168;79;21020;-65
2022/10/26 00:45:49;;;;;;;27.20;17.60;;;;;;;14.59;100.00;8886.40;1777472;80;20989;-64
2022/10/26 00:48:23;;;;;;;24.43;16.55;;;;;;;14.57;100.00;9053.91;1778654;80;20989;-64
2022/10/26 00:50:51;;;;;;;30.17;19.23;;;;;;;14.55;100.00;9053.57;1778691;80;21001;-64
2022/10/26 00:53:20;;;;;;;27.93;18.02;;;;;;;14.52;100.00;9052.91;1754771;80;21414;-65
2022/10/26 00:55:49;;;;;;;29.05;18.75;;;;;;;14.51;100.00;8884.66;1778407;80;21430;-64
2022/10/26 00:58:15;;;;;;;30.68;17.50;;;;;;;14.49;100.00;8716.20;1778812;80;20999;-64
2022/10/26 01:00:42;;;;;;;26.35;17.55;;;;;;;14.47;100.00;8715.76;1778518;80;20977;-65
2022/10/26 01:03:09;;;;;;;28.80;18.40;;;;;;;14.43;100.00;8547.01;1778550;80;21512;-63
2022/10/26 01:05:40;;;;;;;32.80;19.62;;;;;;;14.42;100.00;8042.76;1778358;80;21123;-63
2022/10/26 01:08:07;;;;;;;32.63;20.27;;;;;;;14.41;100.00;7370.78;1778393;80;21072;-65
2022/10/26 01:10:37;;;;;;;31.75;20.45;;;;;;;14.40;100.00;6698.95;1778558;80;21095;-63
2022/10/26 01:13:04;;;;;;;36.23;22.00;;;;;;;14.40;100.00;6195.32;1778439;80;21075;-65
2022/10/26 01:16:04;;;;;;;38.40;23.57;;;;;;;14.37;100.00;5691.35;1778484;80;21024;-64
2022/10/26 01:18:50;;;;;;;40.20;23.73;;;;;;;14.37;100.00;4852.22;1711480;83;21388;-64
2022/10/26 01:21:29;;;;;;;40.43;23.60;;;;;;;14.37;100.00;4516.66;1711561;83;20999;-65
2022/10/26 01:24:10;;;;;;;41.42;24.92;;;;;;;14.35;100.00;4348.61;1710764;83;21090;-64
2022/10/26 01:27:05;;;;;;;37.90;24.12;;;;;;;14.32;100.00;4683.84;1711553;83;21021;-63
2022/10/26 01:30:06;;;;;;;44.53;25.52;;;;;;;14.28;100.00;5186.55;1711616;83;21101;-62
2022/10/26 01:32:50;;;;;;;40.23;24.63;;;;;;;14.23;100.00;5689.11;1690822;83;21243;-65
2022/10/26 01:35:22;;;;;;;44.45;27.67;;;;;;;14.19;100.00;6191.84;1714413;81;20959;-62
2022/10/26 01:37:57;;;;;;;43.40;27.52;;;;;;;14.15;100.00;6694.57;1744813;81;21029;-64
2022/10/26 01:40:35;;;;;;;42.08;27.20;;;;;;;14.10;100.00;7365.07;1747524;82;21085;-62
2022/10/26 01:43:04;;;;;;;49.38;27.37;;;;;;;14.05;100.00;7699.79;1747657;82;21006;-62
2022/10/26 01:45:31;;;;;;;45.08;28.32;;;;;;;14.00;100.00;8202.34;1758613;81;21891;-62
2022/10/26 01:47:58;;;;;;;47.45;28.65;;;;;;;13.97;100.00;8705.31;1763807;80;21116;-62
2022/10/26 01:50:25;;;;;;;49.27;28.40;;;;;;;13.93;100.00;9375.99;1763579;81;21427;-62
2022/10/26 01:52:52;;;;;;;45.92;27.52;;;;;;;13.87;100.00;10046.36;1763060;80;21002;-62
2022/10/26 01:55:47;;;;;;;44.50;26.93;;;;;;;13.84;100.00;10381.49;1711304;81;21504;-62
2022/10/26 01:58:41;;;;;;;42.03;26.77;;;;;;;13.78;100.00;10883.94;1763239;81;21289;-65
2022/10/26 02:01:25;;;;;;;41.63;26.95;;;;;;;13.73;100.00;11218.68;1763137;80;21049;-64
2022/10/26 02:04:20;;;;;;;44.98;27.67;;;;;;;13.68;100.00;11553.28;1763037;81;21061;-63
2022/10/26 02:07:03;;;;;;;44.67;26.97;;;;;;;13.64;100.00;11888.12;1763203;80;21104;-63
2022/10/26 02:09:58;;;;;;;46.48;28.35;;;;;;;13.59;100.00;12222.68;1763116;80;21647;-63
2022/10/26 02:12:54;;;;;;;42.55;26.97;;;;;;;13.54;100.00;12557.22;1763601;81;20985;-62
2022/10/26 02:15:29;;;;;;;45.43;26.37;;;;;;;13.50;100.00;12724.06;1763673;80;21037;-63
2022/10/26 02:18:24;;;;;;;40.98;24.77;;;;;;;13.44;100.00;13058.56;1763787;81;21053;-62
2022/10/26 02:20:54;;;;;;;43.75;26.20;;;;;;;13.41;100.00;13057.70;1754358;81;21088;-63
2022/10/26 02:23:23;;;;;;;42.53;26.68;;;;;;;13.36;100.00;13224.06;1763815;81;21045;-62
2022/10/26 02:25:56;;;;;;;45.20;25.17;;;;;;;13.32;100.00;13390.98;1763603;81;21273;-63
2022/10/26 02:28:33;;;;;;;39.73;24.35;;;;;;;13.29;100.00;13726.00;1763786;81;21026;-63
2022/10/26 02:31:01;;;;;;;40.45;25.05;;;;;;;13.26;100.00;14061.02;1763922;81;21068;-62
2022/10/26 02:33:31;;;;;;;41.10;25.08;;;;;;;13.21;100.00;14563.54;1763834;80;21450;-62
2022/10/26 02:35:59;;;;;;;37.48;23.45;;;;;;;13.18;100.00;14730.74;1763967;81;21001;-62
2022/10/26 02:38:28;;;;;;;39.63;23.47;;;;;;;13.16;100.00;14562.14;1763808;80;21830;-62
2022/10/26 02:40:55;;;;;;;39.85;24.20;;;;;;;13.15;100.00;14057.99;1763681;81;22042;-63
2022/10/26 02:43:22;;;;;;;34.45;23.57;;;;;;;13.15;100.00;13722.13;1761016;80;21040;-63
2022/10/26 02:45:56;;;;;;;40.50;24.37;;;;;;;13.15;100.00;13386.32;1763409;81;21534;-62
2022/10/26 02:48:22;;;;;;;39.63;24.20;;;;;;;13.17;100.00;13386.90;1763054;81;21508;-62
2022/10/26 02:51:17;;;;;;;36.60;24.20;;;;;;;13.18;100.00;13555.11;1763733;81;21230;-62
2022/10/26 02:53:55;;;;;;;37.03;24.67;;;;;;;13.18;100.00;13555.11;1761469;81;21481;-61
2022/10/26 02:56:37;;;;;;;38.02;24.65;;;;;;;13.20;100.00;14059.20;1763713;81;21068;-62
2022/10/26 02:59:04;;;;;;;37.33;24.23;;;;;;;13.21;100.00;14227.61;1763883;81;21040;-62
2022/10/26 03:01:32;;;;;;;38.60;24.63;;;;;;;13.22;100.00;14563.70;1763911;81;21608;-62
2022/10/26 03:03:59;;;;;;;36.17;24.75;;;;;;;13.23;100.00;14732.00;1763888;80;21016;-61
2022/10/26 03:06:26;;;;;;;36.05;23.85;;;;;;;13.25;100.00;15068.79;1763829;80;21078;-61
2022/10/26 03:08:53;;;;;;;37.75;23.25;;;;;;;13.26;100.00;15741.07;1763922;81;21466;-61
2022/10/26 03:11:21;;;;;;;34.13;22.27;;;;;;;13.26;100.00;16413.51;1763812;81;21053;-61
2022/10/26 03:13:47;;;;;;;38.85;21.45;;;;;;;13.27;100.00;17086.08;1763902;80;21578;-62
2022/10/26 03:16:14;;;;;;;36.90;23.05;;;;;;;13.28;100.00;18095.32;1763815;81;21130;-62
2022/10/26 03:18:41;;;;;;;34.65;22.02;;;;;;;13.29;100.00;18600.26;1763736;81;21526;-61
2022/10/26 03:21:08;;;;;;;38.28;22.25;;;;;;;13.31;100.00;19105.67;1764029;81;21092;-62
2022/10/26 03:23:34;;;;;;;36.45;22.55;;;;;;;13.31;100.00;19442.36;1764137;80;21692;-62
2022/10/26 03:26:01;;;;;;;36.35;21.57;;;;;;;13.32;100.00;19947.55;1763758;80;21141;-62
2022/10/26 03:28:30;;;;;;;35.75;21.90;;;;;;;13.33;100.00;20452.62;1763789;80;21101;-61
2022/10/26 03:30:58;;;;;;;34.75;21.57;;;;;;;13.35;100.00;21126.75;1763955;81;21033;-62
2022/10/26 03:33:26;;;;;;;32.17;21.42;;;;;;;13.36;100.00;22305.82;1763949;81;21081;-62
2022/10/26 03:35:56;;;;;;;32.73;20.55;;;;;;;13.35;100.00;23484.44;1774370;79;21015;-62
2022/10/26 03:38:23;;;;;;;30.50;19.92;;;;;;;13.35;100.00;24663.67;1795858;79;21580;-63
2022/10/26 03:40:50;;;;;;;34.20;19.77;;;;;;;13.35;100.00;26012.38;1795818;78;21116;-61
2022/10/26 03:43:17;;;;;;;33.95;19.73;;;;;;;13.35;100.00;27530.07;1795752;79;21421;-61
2022/10/26 03:45:44;;;;;;;33.30;20.60;;;;;;;13.33;100.00;29722.38;1795340;79;21043;-62
2022/10/26 03:48:11;;;;;;;30.77;19.37;;;;;;;13.30;100.00;31915.40;1795569;79;21500;-63
2022/10/26 03:50:37;;;;;;;34.45;19.20;;;;;;;13.26;100.00;33602.43;1795561;79;21047;-62
2022/10/26 03:53:04;;;;;;;27.05;19.02;;;;;;;13.22;100.00;35458.48;1795466;79;21360;-61
2022/10/26 03:55:31;;;;;;;29.35;19.30;;;;;;;13.15;100.00;36806.96;1795231;79;21055;-62
2022/10/26 03:57:58;;;;;;;29.35;19.02;;;;;;;13.09;100.00;37817.45;1795465;79;21049;-62
2022/10/26 04:00:25;;;;;;;28.65;18.48;;;;;;;13.04;100.00;37813.98;1795519;79;21043;-62
2022/10/26 04:02:57;;;;;;;25.88;17.85;;;;;;;13.00;100.00;37134.88;1795544;79;21004;-62
2022/10/26 04:05:26;;;;;;;29.45;18.95;;;;;;;12.97;100.00;36118.99;1795369;79;22100;-62
2022/10/26 04:08:01;;;;;;;26.12;17.87;;;;;;;12.95;100.00;34934.57;1794285;79;20956;-62
2022/10/26 04:10:29;;;;;;;26.05;17.62;;;;;;;12.95;100.00;34090.30;1795999;79;21074;-62
2022/10/26 04:12:57;;;;;;;25.30;17.65;;;;;;;12.95;100.00;33921.10;1795794;79;21028;-62
2022/10/26 04:15:24;;;;;;;29.07;18.55;;;;;;;12.95;100.00;33752.53;1795657;79;21031;-62
2022/10/26 04:17:57;;;;;;;27.67;17.12;;;;;;;12.94;100.00;34427.47;1795818;79;21437;-62
2022/10/26 04:20:25;;;;;;;25.05;16.10;;;;;;;12.94;100.00;34933.92;1795476;79;21515;-62
2022/10/26 04:23:01;;;;;;;21.73;15.28;;;;;;;12.96;100.00;35611.04;1795764;79;21024;-61
2022/10/26 04:25:29;;;;;;;22.07;15.85;;;;;;;12.94;100.00;36285.99;1795949;79;20984;-62
2022/10/26 04:27:56;;;;;;;24.27;15.95;;;;;;;12.94;100.00;37976.11;1769166;79;21012;-61
2022/10/26 04:30:24;;;;;;;25.57;15.03;;;;;;;12.95;100.00;38822.37;1795848;79;21957;-62
2022/10/26 04:32:50;;;;;;;21.37;15.23;;;;;;;12.96;100.00;39838.05;1795662;79;21106;-62
2022/10/26 04:35:17;;;;;;;22.52;14.53;;;;;;;12.97;100.00;41869.66;1795779;79;21342;-62
2022/10/26 04:37:44;;;;;;;19.50;13.93;;;;;;;12.96;100.00;43731.59;1795751;79;21063;-62
2022/10/26 04:40:11;;;;;;;21.02;15.05;;;;;;;12.95;100.00;45425.03;1795907;79;20960;-62
2022/10/26 04:42:46;;;;;;;23.65;15.05;;;;;;;12.95;100.00;47628.79;1795907;79;21051;-62
2022/10/26 04:45:14;;;;;;;21.07;14.18;;;;;;;12.94;100.00;49324.09;1795666;79;21043;-62
2022/10/26 04:47:41;;;;;;;21.90;13.68;;;;;;;12.93;100.00;50850.90;1795138;79;21460;-61
2022/10/26 04:50:11;;;;;;;24.43;14.10;;;;;;;12.93;100.00;51869.46;1795379;79;21070;-61
2022/10/26 04:52:38;;;;;;;20.10;12.95;;;;;;;12.94;100.00;53228.49;1795294;79;20992;-61
2022/10/26 04:55:06;;;;;;;18.85;12.53;;;;;;;12.96;100.00;54249.71;1795198;79;21132;-61
2022/10/26 04:57:33;;;;;;;20.85;12.82;;;;;;;12.98;100.00;54761.43;1795140;79;21500;-62
2022/10/26 05:00:01;;;;;;;19.57;11.95;;;;;;;13.01;100.00;57484.66;1795247;79;21011;-62
2022/10/26 05:02:28;;;;;;;16.50;11.60;;;;;;;13.02;100.00;60553.20;1795182;79;21984;-62
2022/10/26 05:04:55;;;;;;;15.08;11.05;;;;;;;13.06;100.00;62357.88;1795304;79;21083;-62
2022/10/26 05:07:22;;;;;;;15.10;10.35;;;;;;;13.08;100.00;64302.59;1794512;79;21839;-65
2022/10/26 05:09:49;;;;;;;13.03;9.63;;;;;;;13.11;100.00;70618.72;1795039;79;21027;-63
2022/10/26 10:19:40;;;;;;;18.75;9.08;;;;;;;15.73;93.29;151606.77;1744118;80;21035;-93
2022/10/26 10:22:18;;;;;;;9.98;8.28;;;;;;;15.79;93.12;151619.78;1745770;82;21035;-94
2022/10/26 10:25:02;;;;;;;12.03;9.55;;;;;;;15.85;93.31;151635.44;1739725;80;20956;-92
2022/10/26 10:27:32;;;;;;;15.63;10.30;;;;;;;15.90;92.92;151648.50;1728354;80;21576;-93
2022/10/26 10:30:20;;;;;;;12.65;9.35;;;;;;;15.90;92.30;151649.78;1739475;80;21031;-92
2022/10/26 10:32:50;;;;;;;15.72;8.90;;;;;;;15.95;92.38;151661.52;1768434;80;21034;-94
2022/10/26 10:35:24;;;;;;;13.60;10.45;;;;;;;15.98;92.36;151669.33;1741634;80;21107;-94
2022/10/26 10:37:53;;;;;;;15.10;10.20;;;;;;;16.03;92.07;151682.39;1750183;80;21116;-94
2022/10/26 10:40:30;;;;;;;15.90;10.32;;;;;;;16.01;91.81;151675.86;1751124;81;21240;-94
2022/10/26 10:43:12;;;;;;;14.03;9.43;;;;;;;16.01;92.24;151677.13;1754475;81;21095;-93
2022/10/26 10:45:39;;;;;;;14.35;9.43;;;;;;;16.03;91.86;151681.06;1745634;80;21033;-92
2022/10/26 10:48:17;;;;;;;15.63;10.00;;;;;;;16.06;91.63;151687.59;1720758;80;21060;-92
2022/10/26 10:50:58;;;;;;;15.63;9.13;;;;;;;16.04;91.25;151683.66;1718030;81;21096;-92
2022/10/26 10:53:44;;;;;;;12.35;8.50;;;;;;;15.95;90.27;151661.52;1748423;80;21207;-91
2022/10/26 10:56:34;;;;;;;;;;;;;;;15.86;90.69;151638.05;1758304;80;20964;-91
2022/10/26 10:59:28;;;;;;;12.85;8.25;;;;;;;15.84;89.87;151632.84;1753571;80;20193;-92
2022/10/26 11:02:38;;;;;;;16.02;8.63;;;;;;;15.79;89.20;151619.78;1716944;83;20953;-92
2022/10/26 11:05:16;;;;;;;13.85;9.00;;;;;;;15.73;89.48;151606.77;1750960;80;21606;-91
2022/10/26 11:11:09;;;;;;;15.43;8.83;;;;;;;15.68;90.22;151593.75;1754437;79;21653;-90
2022/10/26 11:13:51;;;;;;;12.13;8.28;;;;;;;15.65;90.52;151585.94;1773170;79;20977;-90
2022/10/26 11:16:42;;;;;;;14.38;9.85;;;;;;;15.61;90.92;151575.53;1787875;78;21521;-90
2022/10/26 11:19:33;;;;;;;21.45;9.98;;;;;;;15.61;91.39;151576.81;1779512;78;21039;-91
2022/10/26 11:22:02;;;;;;;13.80;9.98;;;;;;;15.64;91.33;151583.34;1725040;81;21696;-92
2022/10/26 11:24:35;;;;;;;14.93;9.60;;;;;;;15.67;91.52;151591.14;1722830;81;21568;-92
2022/10/26 11:27:06;;;;;;;16.42;9.48;;;;;;;15.72;91.59;151604.16;1761573;79;21033;-93
2022/10/26 11:30:16;;;;;;;13.18;8.93;;;;;;;15.76;90.99;151614.56;1768860;80;21414;-93
2022/10/26 11:33:12;;;;;;;15.30;8.90;;;;;;;15.81;90.76;151625.03;1770809;80;20970;-91
2022/10/26 11:36:01;;;;;;;12.78;8.15;;;;;;;15.85;90.67;151636.72;1768332;79;21231;-92
2022/10/26 11:38:40;;;;;;;14.35;8.60;;;;;;;15.89;89.58;151645.91;1778809;78;21258;-94
2022/10/26 11:41:30;;;;;;;15.60;8.60;;;;;;;15.90;88.51;151649.78;1769530;79;21009;-92
2022/10/26 11:44:30;;;;;;;13.72;7.67;;;;;;;15.91;88.55;151651.11;1735211;80;21070;-91
2022/10/26 11:47:16;;;;;;;12.35;8.25;;;;;;;15.94;88.29;151658.91;1767986;79;21066;-95
2022/10/26 11:50:12;;;;;;;12.03;8.63;;;;;;;15.96;88.10;151664.13;1773234;80;21036;-92
2022/10/26 11:53:03;;;;;;;12.25;8.95;;;;;;;15.98;88.15;151668.05;1775642;79;21478;-91
2022/10/26 11:55:30;;;;;;;16.27;8.55;;;;;;;16.00;88.79;151674.53;1774241;80;21004;-90
2022/10/26 11:57:57;;;;;;;18.48;10.68;;;;;;;16.08;88.98;151692.81;1771235;78;21528;-91
2022/10/26 12:00:23;;;;;;;16.90;10.63;;;;;;;16.11;88.56;151700.61;1778232;80;21068;-91
2022/10/26 12:03:01;;;;;;;17.42;9.73;;;;;;;16.11;88.39;151700.61;1777849;80;21194;-93
2022/10/26 12:05:43;;;;;;;16.12;9.45;;;;;;;16.12;88.63;151703.22;1775635;80;21047;-92
2022/10/26 12:08:30;;;;;;;12.15;8.55;;;;;;;16.15;88.99;151711.03;1762599;80;21115;-91
2022/10/26 12:11:14;;;;;;;13.95;9.50;;;;;;;16.22;88.77;151727.97;1766380;79;21058;-93
2022/10/26 12:13:54;;;;;;;17.30;10.37;;;;;;;16.23;88.30;151731.84;1726879;82;21053;-90
2022/10/26 12:17:17;;;;;;;14.68;10.10;;;;;;;16.23;88.14;151731.84;1733212;79;21489;-91
2022/10/26 12:20:34;;;;;;;16.15;10.08;;;;;;;16.23;88.43;151730.58;1728807;82;21040;-92
2022/10/26 12:23:03;;;;;;;21.05;10.70;;;;;;;16.25;89.18;151737.11;1760430;80;21083;-94
2022/10/26 12:25:30;;;;;;;12.95;10.20;;;;;;;16.25;89.17;151735.78;1766503;80;21476;-92
2022/10/26 12:27:59;;;;;;;16.97;10.90;;;;;;;16.20;89.54;151724.03;1752811;81;21040;-93
2022/10/26 12:30:33;;;;;;;12.40;9.43;;;;;;;16.14;89.90;151708.42;1742088;81;21536;-93
2022/10/26 12:33:02;;;;;;;19.48;10.75;;;;;;;16.11;90.04;151700.61;1717545;82;21012;-91
2022/10/26 12:35:36;;;;;;;20.62;11.35;;;;;;;16.08;90.53;151694.08;1765424;80;21072;-91
2022/10/26 12:41:32;;;;;;;16.60;10.58;;;;;;;16.12;91.65;151703.22;1685092;80;21164;-91
2022/10/26 12:44:10;;;;;;;17.85;9.85;;;;;;;16.16;91.72;151713.62;1736868;80;21887;-90
2022/10/26 12:46:38;;;;;;;11.83;9.00;;;;;;;16.23;91.21;151731.84;1751937;78;21017;-91
2022/10/26 12:49:11;;;;;;;17.25;9.58;;;;;;;16.29;91.06;151747.52;1772572;78;21240;-91
2022/10/26 12:51:41;;;;;;;13.60;9.55;;;;;;;16.33;90.82;151757.94;1734654;79;21012;-91
2022/10/26 12:54:33;;;;;;;14.58;9.80;;;;;;;16.37;90.55;151765.75;1761529;79;20965;-95
2022/10/26 12:57:21;;;;;;;13.50;9.60;;;;;;;16.38;90.72;151769.67;1760794;80;21075;-96
2022/10/26 13:00:00;;;;;;;17.92;10.38;;;;;;;16.37;90.85;151765.75;1753949;81;21021;-93
2022/10/26 13:02:39;;;;;;;13.72;8.70;;;;;;;16.39;91.03;151772.28;1752823;81;21016;-95
2022/10/26 13:05:35;;;;;;;15.28;8.85;;;;;;;16.41;89.78;151777.48;1763880;80;21029;-93
2022/10/26 13:08:08;;;;;;;13.55;7.58;;;;;;;16.41;90.09;151776.16;1751200;80;21044;-94
2022/10/26 13:10:37;;;;;;;12.30;8.25;;;;;;;16.37;89.18;151765.75;1761503;80;21170;-93
2022/10/26 13:13:06;;;;;;;14.90;9.20;;;;;;;16.31;88.83;151752.72;1730793;80;21049;-94
2022/10/26 13:15:38;;;;;;;18.05;9.08;;;;;;;16.27;89.48;151740.98;1724589;79;21567;-94
2022/10/26 13:18:16;;;;;;;18.05;9.23;;;;;;;16.24;90.18;151734.45;1733962;80;21065;-94
2022/10/26 13:21:11;;;;;;;20.45;8.90;;;;;;;16.19;89.35;151721.44;1732897;81;21760;-93
2022/10/26 13:23:41;;;;;;;14.30;8.28;;;;;;;16.16;89.07;151713.62;1724943;80;21560;-92
2022/10/26 13:26:17;;;;;;;14.70;8.60;;;;;;;16.16;88.68;151713.62;1752016;78;21107;-92
2022/10/26 13:28:53;;;;;;;20.37;13.13;;;;;;;16.20;88.54;151724.03;1766237;78;21020;-90
2022/10/26 13:31:36;;;;;;;18.98;8.95;;;;;;;16.22;87.64;151729.25;1764265;79;21128;-91
2022/10/26 13:34:13;;;;;;;15.32;7.80;;;;;;;16.28;85.93;151744.91;1723634;81;21589;-91
2022/10/26 13:37:01;;;;;;;15.05;7.70;;;;;;;16.31;85.02;151751.41;1762736;79;21802;-91
2022/10/26 13:39:41;;;;;;;15.00;8.38;;;;;;;16.33;84.64;151757.94;1744497;80;21163;-92
2022/10/26 13:42:13;;;;;;;12.37;7.47;;;;;;;16.33;85.03;151757.94;1768918;78;21539;-92
2022/10/26 13:45:14;;;;;;;12.75;8.00;;;;;;;16.37;85.60;151767.08;1772986;78;21107;-91
2022/10/26 13:47:58;;;;;;;9.68;7.20;;;;;;;16.42;86.17;151778.77;1766609;78;21201;-91
2022/10/26 13:50:27;;;;;;;11.48;6.80;;;;;;;16.46;85.96;151789.19;1755094;79;21224;-91
2022/10/26 13:52:57;;;;;;;9.98;7.15;;;;;;;16.46;85.36;151789.19;1747061;80;21092;-90
2022/10/26 13:55:56;;;;;;;9.43;6.95;;;;;;;16.43;84.88;151782.69;1769471;78;21100;-89
2022/10/26 13:58:39;;;;;;;11.08;6.87;;;;;;;16.39;84.81;151770.95;1740370;79;21482;-89
2022/10/26 14:01:15;;;;;;;9.60;6.50;;;;;;;16.31;84.30;151752.72;1755742;79;21027;-92
2022/10/26 14:03:43;;;;;;;9.70;6.33;;;;;;;16.24;84.57;151734.45;1747979;80;21229;-91
2022/10/26 14:06:32;;;;;;;10.48;7.08;;;;;;;16.18;85.05;151718.84;1767003;80;21001;-89
2022/10/26 14:09:03;;;;;;;8.88;6.90;;;;;;;16.13;85.39;151705.81;1760469;80;21062;-91
2022/10/26 14:11:51;;;;;;;13.15;7.28;;;;;;;16.06;85.64;151688.88;1739985;80;21033;-91
2022/10/26 14:14:25;;;;;;;11.05;7.87;;;;;;;16.00;85.62;151674.53;1759975;80;21012;-92
2022/10/26 14:16:52;;;;;;;12.25;7.50;;;;;;;15.96;85.58;151664.13;1753171;80;21531;-91
2022/10/26 14:19:28;;;;;;;12.40;7.15;;;;;;;15.92;85.16;151652.44;1748269;80;21197;-92
2022/10/26 14:21:54;;;;;;;;;;;;;;;15.89;85.09;151645.91;1749293;80;21091;-92
2022/10/26 14:24:29;;;;;;;19.48;8.55;;;;;;;15.84;84.90;151632.84;1760540;80;20131;-91
2022/10/26 14:26:56;;;;;;;;;;;;;;;15.80;85.05;151623.70;1758622;80;21802;-91
2022/10/26 14:29:25;;;;;;;14.58;8.28;;;;;;;15.74;85.45;151609.36;1788897;77;21091;-92
2022/10/26 14:31:57;;;;;;;12.65;7.10;;;;;;;15.67;85.83;151591.14;1782328;77;21098;-92
2022/10/26 14:34:22;;;;;;;15.40;6.83;;;;;;;15.62;86.15;151578.12;1755610;77;20948;-90
2022/10/26 14:37:00;;;;;;;12.43;6.85;;;;;;;15.57;86.43;151565.08;1763304;78;20921;-91
2022/10/26 14:39:35;;;;;;;14.95;7.25;;;;;;;15.53;86.77;151554.66;1774716;78;21014;-90
2022/10/26 14:42:09;;;;;;;11.33;7.28;;;;;;;15.46;86.92;151537.73;1765235;78;21321;-90
2022/10/26 14:44:36;;;;;;;11.22;7.20;;;;;;;15.39;87.07;151520.84;1788470;78;21059;-91
2022/10/26 14:47:07;;;;;;;9.90;6.67;;;;;;;15.33;87.10;151505.19;1780341;79;21079;-91
2022/10/26 14:49:35;;;;;;;17.95;7.05;;;;;;;15.27;87.24;151490.91;1784479;79;20982;-94
2022/10/26 14:52:05;;;;;;;12.85;6.72;;;;;;;15.22;87.44;151476.56;1781821;80;20983;-93
2022/10/26 14:54:32;;;;;;;14.35;7.28;;;;;;;15.17;87.69;151466.16;1765284;80;21866;-93
2022/10/26 14:57:07;;;;;;;11.12;6.22;;;;;;;15.12;87.93;151451.83;1690532;82;21480;-94
2022/10/26 14:59:31;;;;;;;14.13;6.87;;;;;;;15.05;88.38;151434.89;1753150;79;21064;-93
2022/10/26 15:02:23;;;;;;;11.63;7.03;;;;;;;14.97;88.88;151414.08;1754086;80;20984;-94
2022/10/26 15:05:20;;;;;;;9.30;6.70;;;;;;;14.90;89.38;151398.42;1749930;79;21039;-93
2022/10/26 15:07:47;;;;;;;13.62;6.65;;;;;;;14.82;89.89;151377.62;1763322;79;21139;-92
2022/10/26 15:10:38;;;;;;;10.03;6.90;;;;;;;14.74;90.22;151356.81;1756045;80;21474;-91
2022/10/26 15:13:30;;;;;;;11.05;6.40;;;;;;;14.68;90.64;151342.44;1770555;78;21028;-91
2022/10/26 15:16:09;;;;;;;11.83;6.25;;;;;;;14.61;90.97;151324.23;1796647;78;21011;-93
2022/10/26 15:18:37;;;;;;;9.75;7.05;;;;;;;14.55;91.25;151308.58;1792301;78;21040;-93
2022/10/26 15:21:09;;;;;;;12.18;6.25;;;;;;;14.47;91.66;151289.05;1782774;79;21616;-93
2022/10/26 15:23:37;;;;;;;15.72;6.62;;;;;;;14.43;91.89;151278.66;1782451;78;21555;-94
2022/10/26 15:26:05;;;;;;;13.60;7.80;;;;;;;14.38;92.28;151265.66;1771709;78;21107;-92
2022/10/26 15:28:41;;;;;;;13.55;7.95;;;;;;;14.33;92.59;151253.92;1743340;79;21020;-93
2022/10/26 15:31:14;;;;;;;;;;;;;;;14.28;92.92;151242.25;1779153;78;21032;-94
2022/10/26 15:33:52;;;;;;;11.40;7.70;;;;;;;14.25;93.15;151233.13;1772215;78;21202;-90
2022/10/26 15:36:23;;;;;;;11.60;7.55;;;;;;;14.20;93.38;151221.41;1763845;79;21020;-90
2022/10/26 15:38:50;;;;;;;18.98;8.53;;;;;;;14.16;93.54;151212.33;1773619;78;21147;-90
2022/10/26 15:41:31;;;;;;;16.02;8.78;;;;;;;14.13;93.78;151203.20;1797801;79;20976;-89
2022/10/26 15:44:04;;;;;;;15.53;8.58;;;;;;;14.10;93.98;151195.41;1746474;80;21238;-90
2022/10/26 15:46:39;;;;;;;15.45;8.13;;;;;;;14.06;94.23;151186.28;1748653;79;24475;-90
2022/10/26 15:49:07;;;;;;;17.52;8.68;;;;;;;14.04;94.61;151182.41;1763238;80;21088;-93
2022/10/26 15:51:34;;;;;;;15.95;9.50;;;;;;;14.04;94.87;151182.41;1767845;80;21035;-93
2022/10/26 15:54:03;;;;;;;19.98;9.70;;;;;;;14.03;95.47;151179.77;1753505;80;21107;-93
2022/10/26 15:56:30;;;;;;;18.70;10.05;;;;;;;14.01;95.59;151174.56;1743428;80;21223;-92
2022/10/26 15:58:57;;;;;;;20.43;9.95;;;;;;;14.00;95.83;151170.69;1764545;80;21212;-93
2022/10/26 16:01:28;;;;;;;20.65;10.85;;;;;;;13.98;96.14;151166.77;1745504;80;21004;-93
2022/10/26 16:03:55;;;;;;;23.60;10.95;;;;;;;13.98;96.37;151166.77;1763162;80;21698;-92
2022/10/26 16:06:33;;;;;;;19.57;10.60;;;;;;;13.96;96.66;151161.56;1759073;79;21170;-92
2022/10/26 16:09:04;;;;;;;23.18;11.15;;;;;;;13.95;96.86;151158.97;1765309;80;21159;-91
2022/10/26 16:11:30;;;;;;;20.45;10.93;;;;;;;13.94;97.07;151155.09;1760104;79;21853;-91
2022/10/26 16:13:58;;;;;;;18.23;10.75;;;;;;;13.94;97.27;151156.38;1759331;79;21085;-92
2022/10/26 16:16:24;;;;;;;20.92;10.10;;;;;;;13.93;97.44;151153.77;1751174;80;21094;-91
2022/10/26 16:18:53;;;;;;;17.57;9.98;;;;;;;13.92;97.51;151151.17;1765635;79;21311;-92
2022/10/26 16:21:21;;;;;;;21.10;11.28;;;;;;;13.90;97.57;151145.97;1749081;80;21420;-91
2022/10/26 16:23:52;;;;;;;15.80;9.70;;;;;;;13.90;97.70;151145.97;1775031;80;20996;-92
2022/10/26 16:26:18;;;;;;;21.27;9.98;;;;;;;13.89;97.92;151143.38;1769465;80;20968;-91
2022/10/26 16:28:46;;;;;;;15.53;10.13;;;;;;;13.87;98.15;151139.44;1780899;79;20964;-94
2022/10/26 16:31:15;;;;;;;14.50;10.10;;;;;;;13.86;98.30;151136.84;1773332;80;21000;-91
2022/10/26 16:33:44;;;;;;;16.55;10.05;;;;;;;13.85;98.53;151132.97;1772049;79;21065;-94
2022/10/26 16:36:11;;;;;;;15.32;9.18;;;;;;;13.85;98.68;151132.97;1753310;79;21253;-93
2022/10/26 16:38:38;;;;;;;12.63;8.95;;;;;;;13.84;98.84;151131.66;1773192;79;20925;-91
2022/10/26 16:41:11;;;;;;;16.95;9.10;;;;;;;13.84;98.99;151130.38;1758399;80;21531;-91
2022/10/26 16:43:40;;;;;;;13.88;10.15;;;;;;;13.84;99.12;151130.38;1762704;79;21026;-91
2022/10/26 16:46:18;;;;;;;13.75;9.25;;;;;;;13.84;99.21;151130.38;1762203;79;21151;-91
2022/10/26 16:48:47;;;;;;;15.13;9.50;;;;;;;13.83;99.28;151129.05;1750337;80;21242;-91
2022/10/26 16:51:23;;;;;;;13.20;9.63;;;;;;;13.82;99.34;151126.45;1720270;80;20974;-91
2022/10/26 16:53:53;;;;;;;13.85;8.98;;;;;;;13.82;99.44;151125.17;1780276;80;21046;-90
2022/10/26 16:56:26;;;;;;;11.80;8.98;;;;;;;13.82;99.52;151125.17;1780230;80;21496;-91
2022/10/26 16:58:53;;;;;;;12.03;9.03;;;;;;;13.81;99.56;151122.53;1779982;80;21001;-90
2022/10/26 17:01:20;;;;;;;15.08;9.73;;;;;;;13.79;99.65;151117.33;1762980;80;21210;-91